Time;durP1;ratioP1;P1;durP2;ratioP2;P2;SDS_P1;SDS_P2;PMS_P1;PMS_P2;Temp;Humidity;BMP_temperature;BMP_pressure;BME280_temperature;BME280_humidity;BME280_pressure;Samples;Min_cycle;Max_cycle;Signal;HPM_P1;HPM_P2
2022/09/02 00:01:54;;;;;;;;;;;7.20;99.90;;;;;;5119220;27;19916;-55
2022/09/02 00:04:34;;;;;;;;;;;7.20;99.90;;;;;;5120854;27;19929;-55
2022/09/02 00:07:13;;;;;;;;;;;7.20;99.90;;;;;;5109209;27;19969;-55
2022/09/02 00:09:53;;;;;;;;;;;7.10;99.90;;;;;;5076357;27;20286;-55
2022/09/02 00:12:33;;;;;;;;;;;7.10;99.90;;;;;;5119153;27;19916;-55
2022/09/02 00:15:13;;;;;;;;;;;7.10;99.90;;;;;;5121499;27;19919;-57
2022/09/02 00:17:53;;;;;;;;;;;7.00;99.90;;;;;;5103389;27;19957;-55
2022/09/02 00:20:32;;;;;;;;;;;6.90;99.90;;;;;;5103882;27;20248;-54
2022/09/02 00:23:12;;;;;;;;;;;6.80;99.90;;;;;;5115619;27;20304;-54
2022/09/02 00:25:52;;;;;;;;;;;6.90;99.90;;;;;;5124311;27;19915;-54
2022/09/02 00:28:32;;;;;;;;;;;7.10;99.90;;;;;;5124512;27;19929;-55
2022/09/02 00:31:12;;;;;;;;;;;7.10;99.90;;;;;;5104839;27;19978;-54
2022/09/02 00:33:52;;;;;;;;;;;7.10;99.90;;;;;;5125763;27;19918;-55
2022/09/02 00:36:32;;;;;;;;;;;7.00;99.90;;;;;;5124691;27;19915;-54
2022/09/02 00:39:11;;;;;;;;;;;6.90;99.90;;;;;;5124632;27;20357;-55
2022/09/02 00:41:51;;;;;;;;;;;6.80;99.90;;;;;;5101262;27;19939;-55
2022/09/02 00:44:31;;;;;;;;;;;6.80;99.90;;;;;;5120105;27;19916;-55
2022/09/02 00:47:11;;;;;;;;;;;6.70;99.90;;;;;;5100969;27;19950;-55
2022/09/02 00:49:52;;;;;;;;;;;6.70;99.90;;;;;;5135684;27;19911;-55
2022/09/02 00:52:37;;;;;;;;;;;6.60;99.90;;;;;;5118191;27;20295;-55
2022/09/02 00:55:18;;;;;;;;;;;6.60;99.90;;;;;;5120100;27;19920;-55
2022/09/02 00:58:00;;;;;;;;;;;6.60;99.90;;;;;;5119746;27;19916;-55
2022/09/02 01:00:43;;;;;;;;;;;6.60;99.90;;;;;;5124256;27;19912;-55
2022/09/02 01:03:24;;;;;;;;;;;6.60;99.90;;;;;;5092732;27;19923;-55
2022/09/02 01:06:04;;;;;;;;;;;6.60;99.90;;;;;;5124789;27;19917;-55
2022/09/02 01:08:47;;;;;;;;;;;6.60;99.90;;;;;;5116801;27;19924;-57
2022/09/02 01:11:30;;;;;;;;;;;6.50;99.90;;;;;;5104052;27;19912;-55
2022/09/02 01:14:12;;;;;;;;;;;6.50;99.90;;;;;;5100631;27;19923;-55
2022/09/02 01:16:54;;;;;;;;;;;6.50;99.90;;;;;;5134090;27;19916;-55
2022/09/02 01:19:36;;;;;;;;;;;6.40;99.90;;;;;;5092590;27;20608;-55
2022/09/02 01:22:17;;;;;;;;;;;6.40;99.90;;;;;;5122653;27;19919;-55
2022/09/02 01:25:00;;;;;;;;;;;6.30;99.90;;;;;;5124337;27;20416;-54
2022/09/02 01:27:40;;;;;;;;;;;6.20;99.90;;;;;;5120151;27;20321;-55
2022/09/02 01:30:21;;;;;;;;;;;6.20;99.90;;;;;;5111820;27;20433;-54
2022/09/02 01:33:01;;;;;;;;;;;6.20;99.90;;;;;;5118589;27;19920;-55
2022/09/02 01:35:41;;;;;;;;;;;6.20;99.90;;;;;;5096950;27;19923;-56
2022/09/02 01:38:22;;;;;;;;;;;6.20;99.90;;;;;;5117158;27;20388;-55
2022/09/02 01:41:02;;;;;;;;;;;6.10;99.90;;;;;;5104806;27;19912;-54
2022/09/02 01:43:42;;;;;;;;;;;6.10;99.90;;;;;;5113115;27;20396;-55
2022/09/02 01:46:22;;;;;;;;;;;6.10;99.90;;;;;;5124550;27;20327;-55
2022/09/02 01:49:03;;;;;;;;;;;6.10;99.90;;;;;;5099616;27;19957;-54
2022/09/02 01:51:43;;;;;;;;;;;6.00;99.90;;;;;;5116549;27;19922;-55
2022/09/02 01:54:25;;;;;;;;;;;6.00;99.90;;;;;;5089557;27;19917;-55
2022/09/02 01:57:05;;;;;;;;;;;6.00;99.90;;;;;;5120842;27;19930;-54
2022/09/02 01:59:45;;;;;;;;;;;6.00;99.90;;;;;;5116733;27;19916;-55
2022/09/02 02:02:26;;;;;;;;;;;5.90;99.90;;;;;;5120123;27;19919;-55
2022/09/02 02:05:06;;;;;;;;;;;6.00;99.90;;;;;;5110893;27;19916;-54
2022/09/02 02:07:47;;;;;;;;;;;5.90;99.90;;;;;;5103045;27;19957;-55
2022/09/02 02:10:27;;;;;;;;;;;5.90;99.90;;;;;;5124488;27;19912;-54
2022/09/02 02:13:08;;;;;;;;;;;5.80;99.90;;;;;;5112657;27;19918;-55
2022/09/02 02:15:48;;;;;;;;;;;5.80;99.90;;;;;;5103309;27;19924;-55
2022/09/02 02:18:28;;;;;;;;;;;5.70;99.90;;;;;;5112885;27;20399;-55
2022/09/02 02:21:08;;;;;;;;;;;5.70;99.90;;;;;;5123300;27;19912;-55
2022/09/02 02:23:48;;;;;;;;;;;5.70;99.90;;;;;;5091758;27;19926;-54
2022/09/02 02:26:27;;;;;;;;;;;5.70;99.90;;;;;;5118400;27;20149;-54
2022/09/02 02:29:09;;;;;;;;;;;5.70;99.90;;;;;;5095883;27;19924;-55
2022/09/02 02:31:50;;;;;;;;;;;5.70;99.90;;;;;;5104871;27;20323;-54
2022/09/02 02:34:30;;;;;;;;;;;5.60;99.90;;;;;;5096095;27;19934;-55
2022/09/02 02:37:11;;;;;;;;;;;5.60;99.90;;;;;;5120675;27;19916;-54
2022/09/02 02:39:51;;;;;;;;;;;5.60;99.90;;;;;;5119167;27;19919;-55
2022/09/02 02:42:34;;;;;;;;;;;5.50;99.90;;;;;;5111377;27;19916;-56
2022/09/02 02:45:14;;;;;;;;;;;5.50;99.90;;;;;;5070943;28;20398;-55
2022/09/02 02:47:54;;;;;;;;;;;5.50;99.90;;;;;;5097227;27;19920;-54
2022/09/02 02:50:35;;;;;;;;;;;5.30;99.90;;;;;;5097722;27;19957;-54
2022/09/02 02:53:16;;;;;;;;;;;5.40;99.90;;;;;;5113138;27;19916;-54
2022/09/02 02:55:57;;;;;;;;;;;5.30;99.90;;;;;;5104043;27;19927;-55
2022/09/02 02:58:37;;;;;;;;;;;5.30;99.90;;;;;;5118874;27;19916;-54
2022/09/02 03:01:17;;;;;;;;;;;5.30;99.90;;;;;;5097913;27;19973;-54
2022/09/02 03:03:58;;;;;;;;;;;5.30;99.90;;;;;;5097351;27;19916;-54
2022/09/02 03:06:38;;;;;;;;;;;5.30;99.90;;;;;;5120627;27;19915;-54
2022/09/02 03:09:19;;;;;;;;;;;5.30;99.90;;;;;;5124099;27;19918;-57
2022/09/02 03:11:59;;;;;;;;;;;5.30;99.90;;;;;;5122176;27;19912;-55
2022/09/02 03:14:39;;;;;;;;;;;5.40;99.90;;;;;;5116125;27;19915;-55
2022/09/02 03:17:19;;;;;;;;;;;5.30;99.90;;;;;;5103297;27;19954;-55
2022/09/02 03:19:58;;;;;;;;;;;5.30;99.90;;;;;;5118590;27;19916;-54
2022/09/02 03:22:42;;;;;;;;;;;5.30;99.90;;;;;;5114506;27;19916;-54
2022/09/02 03:25:24;;;;;;;;;;;5.30;99.90;;;;;;5120958;27;19916;-55
2022/09/02 03:28:06;;;;;;;;;;;5.40;99.90;;;;;;5100271;27;19930;-55
2022/09/02 03:30:46;;;;;;;;;;;5.40;99.90;;;;;;5097307;27;19938;-55
2022/09/02 03:33:27;;;;;;;;;;;5.30;99.90;;;;;;5086865;27;20442;-55
2022/09/02 03:36:09;;;;;;;;;;;5.20;99.90;;;;;;5119160;27;19923;-55
2022/09/02 03:38:50;;;;;;;;;;;5.10;99.90;;;;;;5109945;27;20384;-54
2022/09/02 03:41:30;;;;;;;;;;;5.10;99.90;;;;;;5115995;27;19923;-55
2022/09/02 03:44:11;;;;;;;;;;;5.10;99.90;;;;;;5100199;27;19924;-55
2022/09/02 03:46:53;;;;;;;;;;;5.10;99.90;;;;;;5107534;27;19926;-55
2022/09/02 03:49:32;;;;;;;;;;;5.10;99.90;;;;;;5120118;27;19915;-55
2022/09/02 03:52:14;;;;;;;;;;;5.10;99.90;;;;;;5119620;27;19911;-54
2022/09/02 03:54:54;;;;;;;;;;;5.20;99.90;;;;;;5120945;27;19922;-58
2022/09/02 03:57:36;;;;;;;;;;;5.20;99.90;;;;;;5123534;27;20234;-55
2022/09/02 04:00:19;;;;;;;;;;;5.20;99.90;;;;;;5123595;27;19916;-55
2022/09/02 04:03:00;;;;;;;;;;;5.10;99.90;;;;;;5122739;27;19916;-55
2022/09/02 04:05:45;;;;;;;;;;;5.00;99.90;;;;;;5096648;27;19930;-55
2022/09/02 04:08:26;;;;;;;;;;;4.90;99.90;;;;;;5117810;27;19915;-54
2022/09/02 04:11:09;;;;;;;;;;;4.90;99.90;;;;;;5124670;27;19912;-55
2022/09/02 04:13:51;;;;;;;;;;;4.80;99.90;;;;;;5083980;27;20335;-54
2022/09/02 04:16:35;;;;;;;;;;;4.80;99.90;;;;;;5103964;27;19926;-54
2022/09/02 04:19:19;;;;;;;;;;;4.80;99.90;;;;;;5124330;27;19912;-55
2022/09/02 04:21:59;;;;;;;;;;;4.90;99.90;;;;;;5125453;27;19918;-54
2022/09/02 04:24:41;;;;;;;;;;;4.90;99.90;;;;;;5125631;27;19911;-54
2022/09/02 04:27:20;;;;;;;;;;;4.90;99.90;;;;;;5124702;27;19915;-54
2022/09/02 04:30:00;;;;;;;;;;;4.90;99.90;;;;;;5124509;27;19916;-55
2022/09/02 04:32:42;;;;;;;;;;;4.90;99.90;;;;;;5122892;27;20269;-55
2022/09/02 04:35:23;;;;;;;;;;;4.80;99.90;;;;;;5104034;27;19945;-55
2022/09/02 04:38:05;;;;;;;;;;;4.80;99.90;;;;;;5111159;27;19916;-55
2022/09/02 04:40:45;;;;;;;;;;;4.80;99.90;;;;;;5114090;27;19930;-55
2022/09/02 04:43:26;;;;;;;;;;;4.90;99.90;;;;;;5065254;28;20311;-53
2022/09/02 04:46:06;;;;;;;;;;;5.00;99.90;;;;;;5119585;27;19915;-54
2022/09/02 04:48:47;;;;;;;;;;;5.00;99.90;;;;;;5108486;27;19920;-55
2022/09/02 04:51:28;;;;;;;;;;;5.10;99.90;;;;;;5124548;27;20385;-54
2022/09/02 04:54:13;;;;;;;;;;;5.10;99.90;;;;;;5100729;27;19924;-55
2022/09/02 04:56:56;;;;;;;;;;;5.20;99.90;;;;;;5102935;27;19916;-55
2022/09/02 04:59:38;;;;;;;;;;;5.40;99.90;;;;;;5115641;27;20311;-54
2022/09/02 05:02:22;;;;;;;;;;;5.40;99.90;;;;;;5124521;27;19920;-55
2022/09/02 05:05:02;;;;;;;;;;;5.50;99.90;;;;;;5105154;27;19945;-54
2022/09/02 05:07:47;;;;;;;;;;;5.50;99.90;;;;;;5124857;27;19915;-54
2022/09/02 05:10:27;;;;;;;;;;;5.60;99.90;;;;;;5083822;28;20081;-54
2022/09/02 05:13:08;;;;;;;;;;;5.70;99.90;;;;;;5115407;27;19912;-55
2022/09/02 05:15:48;;;;;;;;;;;5.80;99.90;;;;;;5083956;28;20375;-54
2022/09/02 05:18:30;;;;;;;;;;;5.90;99.90;;;;;;5123503;27;19916;-55
2022/09/02 05:21:11;;;;;;;;;;;6.00;99.90;;;;;;5121184;27;20323;-54
2022/09/02 05:23:50;;;;;;;;;;;6.20;99.90;;;;;;5123616;27;19919;-54
2022/09/02 05:26:34;;;;;;;;;;;6.30;99.90;;;;;;5123861;27;20244;-54
2022/09/02 05:29:16;;;;;;;;;;;6.40;99.90;;;;;;5123178;27;19912;-56
2022/09/02 05:31:56;;;;;;;;;;;6.60;99.90;;;;;;5123979;27;19918;-55
2022/09/02 05:34:38;;;;;;;;;;;6.70;99.90;;;;;;5104048;27;20338;-54
2022/09/02 05:37:19;;;;;;;;;;;6.90;99.90;;;;;;5123734;27;19918;-53
2022/09/02 05:40:01;;;;;;;;;;;7.00;99.90;;;;;;5123750;27;19926;-54
2022/09/02 05:42:40;;;;;;;;;;;7.20;99.90;;;;;;5118247;27;20389;-54
2022/09/02 05:45:22;;;;;;;;;;;7.30;99.90;;;;;;5124640;27;19912;-55
2022/09/02 05:49:04;;;;;;;;;;;7.50;99.90;;;;;;5125111;27;19930;-56
2022/09/02 05:51:05;;;;;;;;;;;7.60;99.90;;;;;;5123244;27;19911;-55
2022/09/02 05:53:47;;;;;;;;;;;7.70;99.90;;;;;;5123731;27;19912;-56
2022/09/02 05:56:27;;;;;;;;;;;7.90;99.90;;;;;;5124297;27;19911;-55
2022/09/02 05:59:07;;;;;;;;;;;8.00;99.90;;;;;;5123935;27;20287;-55
2022/09/02 06:01:48;;;;;;;;;;;8.10;99.90;;;;;;5124266;27;19916;-56
2022/09/02 06:04:30;;;;;;;;;;;8.20;99.90;;;;;;5123765;27;19915;-54
2022/09/02 06:07:13;;;;;;;;;;;8.40;99.90;;;;;;5113031;27;20230;-56
2022/09/02 06:09:53;;;;;;;;;;;8.60;99.90;;;;;;5102591;27;20320;-55
2022/09/02 06:12:37;;;;;;;;;;;8.80;99.90;;;;;;5077806;27;19931;-56
2022/09/02 06:15:18;;;;;;;;;;;8.90;99.90;;;;;;5119355;27;19916;-54
2022/09/02 06:18:00;;;;;;;;;;;9.10;99.90;;;;;;5110182;27;19912;-53
2022/09/02 06:20:41;;;;;;;;;;;9.30;99.90;;;;;;5081634;28;20389;-54
2022/09/02 06:23:23;;;;;;;;;;;9.60;99.90;;;;;;5144988;27;19915;-54
2022/09/02 06:26:04;;;;;;;;;;;10.00;99.90;;;;;;5120627;27;20369;-54
2022/09/02 06:28:44;;;;;;;;;;;10.40;99.90;;;;;;5102960;27;19916;-54
2022/09/02 06:31:25;;;;;;;;;;;10.70;99.90;;;;;;5101645;27;19920;-53
2022/09/02 06:34:07;;;;;;;;;;;11.00;99.90;;;;;;5079099;28;19912;-55
2022/09/02 06:36:49;;;;;;;;;;;11.20;99.90;;;;;;5101851;27;19924;-54
2022/09/02 06:39:31;;;;;;;;;;;11.50;99.90;;;;;;5103962;27;19919;-53
2022/09/02 06:42:13;;;;;;;;;;;11.80;99.90;;;;;;5118502;27;19920;-54
2022/09/02 06:45:00;;;;;;;;;;;12.10;99.90;;;;;;5124093;27;19912;-54
2022/09/02 06:47:42;;;;;;;;;;;12.50;99.90;;;;;;5110952;27;20362;-54
2022/09/02 06:50:22;;;;;;;;;;;12.70;99.90;;;;;;5123218;27;19912;-54
2022/09/02 06:53:05;;;;;;;;;;;13.00;99.90;;;;;;5105085;27;19916;-54
2022/09/02 06:55:46;;;;;;;;;;;13.20;99.90;;;;;;5122787;27;19923;-55
2022/09/02 06:58:26;;;;;;;;;;;13.40;99.90;;;;;;5123650;27;19916;-55
2022/09/02 07:01:08;;;;;;;;;;;13.50;99.90;;;;;;5102129;27;19957;-53
2022/09/02 07:06:47;;;;;;;;;;;13.80;99.90;;;;;;5100900;27;19919;-53
2022/09/02 07:09:29;;;;;;;;;;;13.90;99.90;;;;;;5124165;27;19927;-53
2022/09/02 07:12:14;;;;;;;;;;;14.00;99.90;;;;;;5162493;27;19933;-55
2022/09/02 07:15:00;;;;;;;;;;;14.10;99.90;;;;;;5101267;27;19916;-53
2022/09/02 07:17:45;;;;;;;;;;;14.20;99.90;;;;;;5148068;27;19911;-53
2022/09/02 07:20:31;;;;;;;;;;;14.30;99.90;;;;;;5122344;27;19922;-54
2022/09/02 07:23:14;;;;;;;;;;;14.40;99.90;;;;;;5114673;27;19927;-54
2022/09/02 07:25:57;;;;;;;;;;;14.50;99.90;;;;;;5080963;28;19920;-54
2022/09/02 07:28:38;;;;;;;;;;;14.50;99.90;;;;;;5124042;27;19912;-53
2022/09/02 07:31:19;;;;;;;;;;;14.60;99.90;;;;;;5124080;27;19916;-53
2022/09/02 07:34:00;;;;;;;;;;;14.70;99.90;;;;;;5101748;27;19912;-54
2022/09/02 07:36:41;;;;;;;;;;;14.80;99.90;;;;;;5122893;27;20369;-54
2022/09/02 07:39:23;;;;;;;;;;;15.00;99.90;;;;;;5125181;27;19912;-54
2022/09/02 07:42:03;;;;;;;;;;;15.00;99.90;;;;;;5123139;27;19915;-53
2022/09/02 07:44:44;;;;;;;;;;;15.20;99.90;;;;;;5125386;27;19915;-56
2022/09/02 07:47:24;;;;;;;;;;;15.20;99.90;;;;;;5121568;27;19929;-53
2022/09/02 07:50:04;;;;;;;;;;;15.40;99.90;;;;;;5125297;27;19912;-53
2022/09/02 07:52:45;;;;;;;;;;;15.40;99.90;;;;;;5115566;27;20082;-53
2022/09/02 07:55:28;;;;;;;;;;;15.50;99.90;;;;;;5103722;27;20434;-53
2022/09/02 07:58:10;;;;;;;;;;;15.50;99.90;;;;;;5123998;27;19915;-55
2022/09/02 08:00:51;;;;;;;;;;;15.60;99.90;;;;;;5136118;27;19922;-53
2022/09/02 08:03:33;;;;;;;;;;;15.70;99.90;;;;;;5155812;22;19939;-56
2022/09/02 08:06:14;;;;;;;;;;;15.80;99.90;;;;;;5082299;28;20328;-55
2022/09/02 08:08:54;;;;;;;;;;;15.90;99.90;;;;;;5124313;27;20107;-55
2022/09/02 08:11:39;;;;;;;;;;;16.00;99.90;;;;;;5119240;27;19916;-55
2022/09/02 08:14:23;;;;;;;;;;;16.10;99.90;;;;;;5093862;27;19930;-55
2022/09/02 08:17:03;;;;;;;;;;;16.20;99.90;;;;;;5120695;27;19916;-55
2022/09/02 08:19:43;;;;;;;;;;;16.20;99.90;;;;;;5124286;27;19911;-55
2022/09/02 08:22:24;;;;;;;;;;;16.30;99.90;;;;;;5103750;27;19924;-54
2022/09/02 08:25:06;;;;;;;;;;;16.40;99.90;;;;;;5105128;27;20414;-55
2022/09/02 08:27:47;;;;;;;;;;;16.50;99.90;;;;;;5122116;27;19912;-55
2022/09/02 08:30:27;;;;;;;;;;;16.60;99.90;;;;;;5082174;28;20431;-55
2022/09/02 08:33:06;;;;;;;;;;;16.70;99.90;;;;;;5125559;27;20390;-55
2022/09/02 08:35:46;;;;;;;;;;;16.70;99.90;;;;;;5122667;27;19930;-54
2022/09/02 08:38:26;;;;;;;;;;;16.80;99.90;;;;;;5125318;27;19916;-55
2022/09/02 08:41:13;;;;;;;;;;;16.80;99.90;;;;;;5122639;27;20299;-55
2022/09/02 08:43:55;;;;;;;;;;;16.90;99.90;;;;;;5097034;27;19913;-55
2022/09/02 08:46:35;;;;;;;;;;;17.00;99.90;;;;;;5100042;27;19962;-55
2022/09/02 08:49:16;;;;;;;;;;;17.10;99.90;;;;;;5155886;27;19915;-55
2022/09/02 08:51:57;;;;;;;;;;;17.10;99.90;;;;;;5120471;27;19965;-55
2022/09/02 08:54:43;;;;;;;;;;;17.20;99.90;;;;;;5092713;27;19931;-55
2022/09/02 08:57:25;;;;;;;;;;;17.20;99.90;;;;;;5083912;27;20176;-55
2022/09/02 09:00:06;;;;;;;;;;;17.20;99.90;;;;;;5144274;27;19915;-56
2022/09/02 09:02:55;;;;;;;;;;;17.40;99.90;;;;;;5125155;27;19919;-55
2022/09/02 09:05:42;;;;;;;;;;;17.40;99.90;;;;;;5122393;27;19957;-55
2022/09/02 09:08:28;;;;;;;;;;;17.50;99.90;;;;;;5123283;27;19918;-55
2022/09/02 09:11:15;;;;;;;;;;;17.50;99.90;;;;;;5123538;27;19915;-55
2022/09/02 09:14:06;;;;;;;;;;;17.50;97.60;;;;;;5116663;27;19912;-55
2022/09/02 09:16:48;;;;;;;;;;;17.60;94.80;;;;;;5120638;27;19924;-55
2022/09/02 09:19:36;;;;;;;;;;;17.70;97.00;;;;;;5123215;27;19912;-55
2022/09/02 09:22:18;;;;;;;;;;;17.70;95.70;;;;;;5121286;27;19916;-55
2022/09/02 09:24:58;;;;;;;;;;;17.80;96.50;;;;;;5125473;27;19911;-55
2022/09/02 09:27:38;;;;;;;;;;;17.90;96.10;;;;;;5108710;27;20108;-55
2022/09/02 09:30:18;;;;;;;;;;;18.00;92.70;;;;;;5095251;27;19954;-55
2022/09/02 09:32:59;;;;;;;;;;;18.00;92.90;;;;;;5088095;27;19954;-55
2022/09/02 09:35:48;;;;;;;;;;;18.10;82.40;;;;;;5102390;27;19931;-55
2022/09/02 09:38:30;;;;;;;;;;;18.20;77.80;;;;;;5109567;27;19913;-55
2022/09/02 09:41:13;;;;;;;;;;;18.10;74.50;;;;;;5122631;27;20376;-55
2022/09/02 09:43:53;;;;;;;;;;;18.00;72.50;;;;;;5143109;27;20429;-55
2022/09/02 09:46:33;;;;;;;;;;;18.00;73.90;;;;;;5123075;27;19916;-55
2022/09/02 09:49:25;;;;;;;;;;;18.00;74.10;;;;;;5103446;27;19912;-56
2022/09/02 09:52:05;;;;;;;;;;;18.10;70.60;;;;;;5120386;27;19922;-55
2022/09/02 09:54:45;;;;;;;;;;;18.20;71.00;;;;;;5124566;27;19949;-55
2022/09/02 09:57:25;;;;;;;;;;;18.30;68.40;;;;;;5103934;27;20296;-55
2022/09/02 10:00:10;;;;;;;;;;;18.30;69.80;;;;;;5103186;27;19916;-55
2022/09/02 10:02:55;;;;;;;;;;;18.40;68.90;;;;;;5134999;27;19918;-55
2022/09/02 10:05:36;;;;;;;;;;;18.50;69.10;;;;;;5121850;27;20209;-55
2022/09/02 10:08:21;;;;;;;;;;;18.60;67.80;;;;;;5106502;27;19926;-55
2022/09/02 10:11:03;;;;;;;;;;;18.70;68.10;;;;;;5122192;27;19919;-55
2022/09/02 10:13:43;;;;;;;;;;;18.70;65.40;;;;;;5118391;27;19916;-55
2022/09/02 10:16:30;;;;;;;;;;;18.70;67.20;;;;;;5122044;27;20335;-55
2022/09/02 10:19:17;;;;;;;;;;;18.70;65.60;;;;;;5122364;27;19972;-55
2022/09/02 10:22:04;;;;;;;;;;;18.70;63.70;;;;;;5121358;27;19924;-55
2022/09/02 10:25:01;;;;;;;;;;;18.80;62.00;;;;;;5123174;27;19911;-55
2022/09/02 10:27:48;;;;;;;;;;;19.00;61.30;;;;;;5108229;27;19916;-55
2022/09/02 10:30:30;;;;;;;;;;;19.10;61.80;;;;;;5120613;27;19912;-55
2022/09/02 10:33:14;;;;;;;;;;;19.20;59.50;;;;;;5131680;27;19920;-55
2022/09/02 10:35:58;;;;;;;;;;;19.40;60.40;;;;;;5094327;27;19949;-55
2022/09/02 10:38:42;;;;;;;;;;;19.60;62.90;;;;;;5122946;27;20498;-56
2022/09/02 10:41:33;;;;;;;;;;;19.60;59.60;;;;;;5123615;27;19918;-56
2022/09/02 10:44:21;;;;;;;;;;;19.50;61.00;;;;;;5124335;27;19923;-55
2022/09/02 10:47:02;;;;;;;;;;;19.50;60.60;;;;;;5136955;27;20170;-55
2022/09/02 10:49:51;;;;;;;;;;;19.50;55.70;;;;;;5175412;27;19915;-55
2022/09/02 10:52:38;;;;;;;;;;;19.50;54.20;;;;;;5102552;27;19926;-55
2022/09/02 10:55:23;;;;;;;;;;;19.50;55.90;;;;;;5124403;27;19916;-55
2022/09/02 10:58:04;;;;;;;;;;;19.50;56.50;;;;;;5103489;27;19965;-55
2022/09/02 11:00:50;;;;;;;;;;;19.40;57.90;;;;;;5123852;27;19920;-55
2022/09/02 11:03:33;;;;;;;;;;;19.20;57.50;;;;;;5079974;28;19917;-55
2022/09/02 11:06:18;;;;;;;;;;;19.20;57.80;;;;;;5124128;27;19915;-55
2022/09/02 11:09:00;;;;;;;;;;;19.20;58.20;;;;;;5123703;27;20407;-55
2022/09/02 11:11:46;;;;;;;;;;;19.30;58.20;;;;;;5123351;27;19922;-56
2022/09/02 11:14:27;;;;;;;;;;;19.40;58.40;;;;;;5123397;27;19912;-55
2022/09/02 11:17:09;;;;;;;;;;;19.50;57.60;;;;;;5122995;27;19916;-56
2022/09/02 11:19:53;;;;;;;;;;;19.70;57.90;;;;;;5120744;27;19997;-55
2022/09/02 11:22:40;;;;;;;;;;;19.50;55.50;;;;;;5102001;27;19912;-56
2022/09/02 11:25:24;;;;;;;;;;;19.30;56.20;;;;;;5144676;27;19915;-55
2022/09/02 11:28:22;;;;;;;;;;;19.50;61.30;;;;;;5123977;27;20221;-53
2022/09/02 11:31:06;;;;;;;;;;;19.90;54.70;;;;;;5123823;27;19911;-55
2022/09/02 11:33:50;;;;;;;;;;;20.10;56.00;;;;;;5124187;27;19935;-55
2022/09/02 11:36:31;;;;;;;;;;;20.30;53.60;;;;;;5123317;27;20257;-56
2022/09/02 11:39:12;;;;;;;;;;;20.40;52.80;;;;;;5123265;27;20331;-56
2022/09/02 11:41:58;;;;;;;;;;;20.40;51.60;;;;;;5103706;27;19919;-55
2022/09/02 11:45:04;;;;;;;;;;;20.30;52.80;;;;;;5096208;27;19916;-55
2022/09/02 11:48:02;;;;;;;;;;;20.00;55.10;;;;;;5122309;27;19927;-56
2022/09/02 11:50:55;;;;;;;;;;;20.20;54.20;;;;;;5119005;27;19927;-55
2022/09/02 11:53:38;;;;;;;;;;;20.20;53.20;;;;;;5101000;27;19920;-55
2022/09/02 11:56:20;;;;;;;;;;;20.30;53.20;;;;;;5122109;27;20458;-55
2022/09/02 11:59:02;;;;;;;;;;;20.20;53.00;;;;;;5100144;27;20436;-56
2022/09/02 12:01:48;;;;;;;;;;;20.10;52.00;;;;;;5099310;27;19954;-55
2022/09/02 12:04:27;;;;;;;;;;;20.10;54.10;;;;;;5112001;27;19912;-55
2022/09/02 12:07:23;;;;;;;;;;;20.30;52.30;;;;;;5101026;27;20389;-57
2022/09/02 12:10:04;;;;;;;;;;;20.40;52.60;;;;;;5145821;27;19917;-55
2022/09/02 12:13:11;;;;;;;;;;;20.40;48.70;;;;;;5121450;27;19912;-55
2022/09/02 12:16:19;;;;;;;;;;;20.40;50.40;;;;;;5103418;27;19912;-55
2022/09/02 12:19:14;;;;;;;;;;;20.30;49.90;;;;;;5102043;27;19916;-55
2022/09/02 12:22:12;;;;;;;;;;;20.50;50.60;;;;;;5103418;27;19926;-55
2022/09/02 12:24:53;;;;;;;;;;;20.60;49.10;;;;;;5124057;27;19934;-55
2022/09/02 12:27:37;;;;;;;;;;;20.60;46.90;;;;;;5155299;27;19953;-55
2022/09/02 12:30:36;;;;;;;;;;;20.60;46.80;;;;;;5102975;27;19916;-55
2022/09/02 12:33:28;;;;;;;;;;;20.60;46.70;;;;;;5101789;27;19916;-55
2022/09/02 12:36:31;;;;;;;;;;;20.70;47.70;;;;;;5123637;27;19919;-55
2022/09/02 12:39:26;;;;;;;;;;;21.00;46.60;;;;;;5082565;28;20187;-56
2022/09/02 12:42:19;;;;;;;;;;;21.30;46.60;;;;;;5068959;28;20298;-55
2022/09/02 12:45:05;;;;;;;;;;;21.50;48.10;;;;;;5123993;27;19953;-55
2022/09/02 12:47:50;;;;;;;;;;;21.70;46.20;;;;;;5144402;27;19925;-55
2022/09/02 12:50:34;;;;;;;;;;;21.70;45.30;;;;;;5102745;27;19912;-55
2022/09/02 12:53:30;;;;;;;;;;;21.50;45.00;;;;;;5123403;27;20485;-55
2022/09/02 12:56:19;;;;;;;;;;;21.60;44.30;;;;;;5120679;27;20397;-55
2022/09/02 12:58:59;;;;;;;;;;;21.70;44.60;;;;;;5110756;27;19916;-56
2022/09/02 13:01:43;;;;;;;;;;;21.60;42.70;;;;;;5102807;27;19981;-55
2022/09/02 13:04:30;;;;;;;;;;;21.70;43.60;;;;;;5112601;27;20440;-55
2022/09/02 13:07:27;;;;;;;;;;;21.80;43.50;;;;;;5124086;27;20095;-55
2022/09/02 13:10:28;;;;;;;;;;;21.80;44.40;;;;;;5145353;27;19912;-55
2022/09/02 13:13:19;;;;;;;;;;;22.00;44.30;;;;;;5104121;27;20126;-55
2022/09/02 13:16:10;;;;;;;;;;;21.80;43.10;;;;;;5125709;27;20356;-55
2022/09/02 13:19:06;;;;;;;;;;;21.90;42.70;;;;;;5123875;27;19919;-56
2022/09/02 13:22:00;;;;;;;;;;;22.00;43.10;;;;;;5125373;27;19919;-55
2022/09/02 13:25:03;;;;;;;;;;;22.10;41.50;;;;;;5111765;27;19912;-55
2022/09/02 13:27:54;;;;;;;;;;;22.00;42.50;;;;;;5104069;27;20410;-55
2022/09/02 13:30:41;;;;;;;;;;;22.00;41.10;;;;;;5124853;27;20288;-55
2022/09/02 13:33:21;;;;;;;;;;;21.90;43.00;;;;;;5122744;27;19929;-55
2022/09/02 13:36:01;;;;;;;;;;;21.80;41.60;;;;;;5103979;27;19912;-55
2022/09/02 13:38:41;;;;;;;;;;;21.70;41.50;;;;;;5124666;27;19918;-56
2022/09/02 13:41:31;;;;;;;;;;;21.70;41.80;;;;;;5125394;27;20424;-56
2022/09/02 13:44:11;;;;;;;;;;;21.80;40.90;;;;;;5116341;27;19912;-55
2022/09/02 13:46:52;;;;;;;;;;;21.80;42.30;;;;;;5124841;27;20440;-55
2022/09/02 13:49:35;;;;;;;;;;;21.70;42.40;;;;;;5124203;27;19953;-55
2022/09/02 13:52:18;;;;;;;;;;;21.80;43.20;;;;;;5084236;28;19916;-55
2022/09/02 13:54:58;;;;;;;;;;;21.80;41.10;;;;;;5104387;27;19912;-56
2022/09/02 13:57:43;;;;;;;;;;;21.80;41.10;;;;;;5104060;27;19920;-55
2022/09/02 14:00:32;;;;;;;;;;;21.70;42.00;;;;;;5116354;27;20448;-55
2022/09/02 14:03:13;;;;;;;;;;;21.70;43.80;;;;;;5116045;27;20331;-55
2022/09/02 14:05:55;;;;;;;;;;;21.60;41.20;;;;;;5124009;27;19915;-56
2022/09/02 14:08:35;;;;;;;;;;;21.60;41.90;;;;;;5092565;27;19930;-55
2022/09/02 14:11:16;;;;;;;;;;;21.60;41.50;;;;;;5104818;27;19926;-55
2022/09/02 14:13:56;;;;;;;;;;;21.60;41.90;;;;;;5094186;27;20320;-54
2022/09/02 14:16:37;;;;;;;;;;;21.50;42.10;;;;;;5110908;27;19917;-54
2022/09/02 14:19:25;;;;;;;;;;;21.50;42.30;;;;;;5119379;27;19923;-54
2022/09/02 14:22:05;;;;;;;;;;;21.60;42.10;;;;;;5113426;27;19920;-55
2022/09/02 14:24:45;;;;;;;;;;;21.70;42.90;;;;;;5104488;27;20011;-55
2022/09/02 14:27:24;;;;;;;;;;;21.70;42.70;;;;;;5115864;27;19913;-54
2022/09/02 14:30:08;;;;;;;;;;;21.60;42.40;;;;;;5125254;27;19912;-55
2022/09/02 14:32:47;;;;;;;;;;;21.50;41.80;;;;;;5120110;27;20331;-55
2022/09/02 14:35:27;;;;;;;;;;;21.40;42.00;;;;;;5122171;27;19927;-56
2022/09/02 14:38:07;;;;;;;;;;;21.40;41.70;;;;;;5134312;27;20024;-55
2022/09/02 14:40:47;;;;;;;;;;;21.40;41.60;;;;;;5107211;27;19926;-56
2022/09/02 14:43:27;;;;;;;;;;;21.50;42.70;;;;;;5121697;27;19957;-54
2022/09/02 14:46:07;;;;;;;;;;;21.50;42.60;;;;;;5091594;27;19927;-55
2022/09/02 14:48:52;;;;;;;;;;;21.30;42.40;;;;;;5093635;27;19924;-56
2022/09/02 14:51:34;;;;;;;;;;;21.30;43.00;;;;;;5112491;27;19922;-55
2022/09/02 14:54:33;;;;;;;;;;;21.30;42.20;;;;;;5115384;27;19920;-55
2022/09/02 14:57:21;;;;;;;;;;;21.30;41.60;;;;;;5117569;27;20363;-54
2022/09/02 15:00:06;;;;;;;;;;;21.20;41.00;;;;;;5159824;27;19911;-55
2022/09/02 15:02:54;;;;;;;;;;;21.20;41.70;;;;;;5105277;27;20328;-55
2022/09/02 15:05:35;;;;;;;;;;;21.20;42.50;;;;;;5126711;27;20324;-56
2022/09/02 15:08:15;;;;;;;;;;;21.10;43.00;;;;;;5111352;27;20389;-55
2022/09/02 15:10:58;;;;;;;;;;;21.00;44.40;;;;;;5126642;27;19926;-55
2022/09/02 15:13:37;;;;;;;;;;;21.00;44.10;;;;;;5101633;27;20370;-55
2022/09/02 15:16:17;;;;;;;;;;;21.00;44.30;;;;;;5126882;27;19912;-56
2022/09/02 15:18:57;;;;;;;;;;;21.00;42.80;;;;;;5126842;27;19912;-54
2022/09/02 15:21:37;;;;;;;;;;;20.90;42.70;;;;;;5126472;27;19970;-56
2022/09/02 15:24:17;;;;;;;;;;;20.90;42.70;;;;;;5116831;27;19946;-55
2022/09/02 15:26:56;;;;;;;;;;;20.90;43.90;;;;;;5126905;27;20300;-55
2022/09/02 15:29:36;;;;;;;;;;;20.90;43.50;;;;;;5126293;27;19912;-55
2022/09/02 15:32:16;;;;;;;;;;;20.80;42.80;;;;;;5126810;27;19912;-55
2022/09/02 15:34:56;;;;;;;;;;;20.80;43.30;;;;;;5126244;27;19912;-54
2022/09/02 15:37:36;;;;;;;;;;;20.80;43.20;;;;;;5126369;27;19911;-54
2022/09/02 15:40:17;;;;;;;;;;;20.70;43.90;;;;;;5126522;27;19912;-54
2022/09/02 15:42:58;;;;;;;;;;;20.70;43.90;;;;;;5127177;27;19925;-55
2022/09/02 15:45:44;;;;;;;;;;;20.60;44.20;;;;;;5105602;27;19912;-55
2022/09/02 15:48:25;;;;;;;;;;;20.40;44.60;;;;;;5126778;27;19916;-54
2022/09/02 15:51:10;;;;;;;;;;;20.40;45.20;;;;;;5126214;27;19934;-55
2022/09/02 15:53:54;;;;;;;;;;;20.20;45.60;;;;;;5147463;27;19911;-55
2022/09/02 15:56:36;;;;;;;;;;;20.10;46.30;;;;;;5146992;27;19933;-55